sensor_id;sensor_type;location;lat;lon;timestamp;pressure;altitude;pressure_sealevel;temperature;humidity
22000;BME280;11164;48.818;2.322;2023-01-13T00:00:52;100141.94;;;11.82;56.29
22000;BME280;11164;48.818;2.322;2023-01-13T00:03:17;100127.78;;;11.87;56.17
22000;BME280;11164;48.818;2.322;2023-01-13T00:05:43;100132.13;;;11.88;55.90
22000;BME280;11164;48.818;2.322;2023-01-13T00:08:08;100134.03;;;11.81;56.21
22000;BME280;11164;48.818;2.322;2023-01-13T00:10:34;100157.72;;;11.40;57.77
22000;BME280;11164;48.818;2.322;2023-01-13T00:13:01;100169.09;;;11.49;57.12
22000;BME280;11164;48.818;2.322;2023-01-13T00:15:27;100153.63;;;11.76;56.08
22000;BME280;11164;48.818;2.322;2023-01-13T00:17:53;100156.56;;;12.00;55.38
22000;BME280;11164;48.818;2.322;2023-01-13T00:20:18;100160.25;;;12.06;55.04
22000;BME280;11164;48.818;2.322;2023-01-13T00:22:44;100143.78;;;11.50;56.70
22000;BME280;11164;48.818;2.322;2023-01-13T00:25:09;100142.44;;;11.28;56.72
22000;BME280;11164;48.818;2.322;2023-01-13T00:27:35;100149.97;;;11.12;56.79
22000;BME280;11164;48.818;2.322;2023-01-13T00:30:01;100140.81;;;11.13;56.62
22000;BME280;11164;48.818;2.322;2023-01-13T00:32:27;100141.72;;;10.87;56.98
22000;BME280;11164;48.818;2.322;2023-01-13T00:34:52;100146.88;;;10.95;56.37
22000;BME280;11164;48.818;2.322;2023-01-13T00:37:18;100141.81;;;11.19;55.60
22000;BME280;11164;48.818;2.322;2023-01-13T00:39:43;100135.50;;;10.86;56.36
22000;BME280;11164;48.818;2.322;2023-01-13T00:42:10;100142.69;;;11.06;55.40
22000;BME280;11164;48.818;2.322;2023-01-13T00:44:54;100140.19;;;11.11;55.30
22000;BME280;11164;48.818;2.322;2023-01-13T00:47:19;100139.06;;;11.32;54.53
22000;BME280;11164;48.818;2.322;2023-01-13T00:49:45;100108.31;;;10.95;55.42
22000;BME280;11164;48.818;2.322;2023-01-13T00:52:11;100126.94;;;11.03;55.28
22000;BME280;11164;48.818;2.322;2023-01-13T00:54:36;100122.22;;;10.92;55.30
22000;BME280;11164;48.818;2.322;2023-01-13T00:57:03;100121.78;;;10.95;55.27
22000;BME280;11164;48.818;2.322;2023-01-13T00:59:28;100129.16;;;11.19;54.53
22000;BME280;11164;48.818;2.322;2023-01-13T01:01:54;100126.50;;;11.06;55.02
22000;BME280;11164;48.818;2.322;2023-01-13T01:04:19;100142.31;;;10.96;55.33
22000;BME280;11164;48.818;2.322;2023-01-13T01:06:45;100140.41;;;11.03;55.08
22000;BME280;11164;48.818;2.322;2023-01-13T01:09:14;100140.50;;;10.76;55.89
22000;BME280;11164;48.818;2.322;2023-01-13T01:11:40;100133.22;;;10.83;55.57
22000;BME280;11164;48.818;2.322;2023-01-13T01:14:06;100136.09;;;10.95;55.33
22000;BME280;11164;48.818;2.322;2023-01-13T01:16:32;100136.31;;;10.94;55.49
22000;BME280;11164;48.818;2.322;2023-01-13T01:18:59;100132.13;;;10.98;55.20
22000;BME280;11164;48.818;2.322;2023-01-13T01:21:26;100128.78;;;11.09;55.07
22000;BME280;11164;48.818;2.322;2023-01-13T01:23:52;100126.16;;;10.82;55.78
22000;BME280;11164;48.818;2.322;2023-01-13T01:26:20;100123.19;;;11.04;55.27
22000;BME280;11164;48.818;2.322;2023-01-13T01:28:46;100126.53;;;10.99;55.17
22000;BME280;11164;48.818;2.322;2023-01-13T01:33:42;100137.41;;;10.79;55.72
22000;BME280;11164;48.818;2.322;2023-01-13T01:36:09;100133.03;;;10.65;55.89
22000;BME280;11164;48.818;2.322;2023-01-13T01:38:35;100125.31;;;10.88;55.50
22000;BME280;11164;48.818;2.322;2023-01-13T01:41:01;100118.50;;;10.86;55.22
22000;BME280;11164;48.818;2.322;2023-01-13T01:43:55;100129.75;;;10.63;55.39
22000;BME280;11164;48.818;2.322;2023-01-13T01:46:31;100111.22;;;10.86;55.19
22000;BME280;11164;48.818;2.322;2023-01-13T01:49:12;100123.03;;;10.92;54.40
22000;BME280;11164;48.818;2.322;2023-01-13T01:51:46;100117.31;;;10.62;55.06
22000;BME280;11164;48.818;2.322;2023-01-13T01:54:14;100110.88;;;10.63;55.16
22000;BME280;11164;48.818;2.322;2023-01-13T01:56:42;100124.03;;;10.98;54.38
22000;BME280;11164;48.818;2.322;2023-01-13T01:59:08;100121.16;;;10.93;54.16
22000;BME280;11164;48.818;2.322;2023-01-13T02:01:34;100125.75;;;10.85;54.50
22000;BME280;11164;48.818;2.322;2023-01-13T02:04:06;100121.22;;;10.73;54.65
22000;BME280;11164;48.818;2.322;2023-01-13T02:06:34;100124.53;;;10.55;55.42
22000;BME280;11164;48.818;2.322;2023-01-13T02:08:59;100137.81;;;10.76;54.53
22000;BME280;11164;48.818;2.322;2023-01-13T02:11:30;100135.53;;;10.80;53.81
22000;BME280;11164;48.818;2.322;2023-01-13T02:14:14;100142.19;;;10.77;54.58
22000;BME280;11164;48.818;2.322;2023-01-13T02:16:47;100134.91;;;10.78;54.51
22000;BME280;11164;48.818;2.322;2023-01-13T02:25:25;100137.00;;;10.62;54.38
22000;BME280;11164;48.818;2.322;2023-01-13T02:28:21;100141.13;;;10.72;54.34
22000;BME280;11164;48.818;2.322;2023-01-13T02:30:46;100146.75;;;10.50;54.91
22000;BME280;11164;48.818;2.322;2023-01-13T02:34:16;100148.81;;;10.75;54.16
22000;BME280;11164;48.818;2.322;2023-01-13T02:37:06;100149.44;;;10.43;54.64
22000;BME280;11164;48.818;2.322;2023-01-13T02:39:35;100153.16;;;10.76;54.23
22000;BME280;11164;48.818;2.322;2023-01-13T02:42:12;100157.69;;;10.88;53.76
22000;BME280;11164;48.818;2.322;2023-01-13T02:45:04;100157.72;;;10.75;54.16
22000;BME280;11164;48.818;2.322;2023-01-13T02:47:34;100159.59;;;10.68;54.14
22000;BME280;11164;48.818;2.322;2023-01-13T02:50:14;100161.88;;;10.78;53.74
22000;BME280;11164;48.818;2.322;2023-01-13T02:52:51;100172.22;;;10.41;54.43
22000;BME280;11164;48.818;2.322;2023-01-13T02:55:23;100168.72;;;10.34;55.12
22000;BME280;11164;48.818;2.322;2023-01-13T02:57:52;100168.31;;;10.37;55.13
22000;BME280;11164;48.818;2.322;2023-01-13T03:00:19;100169.97;;;10.78;53.87
22000;BME280;11164;48.818;2.322;2023-01-13T03:02:46;100172.03;;;10.56;54.20
22000;BME280;11164;48.818;2.322;2023-01-13T03:05:14;100178.69;;;10.66;53.90
22000;BME280;11164;48.818;2.322;2023-01-13T03:08:10;100174.97;;;10.61;53.86
22000;BME280;11164;48.818;2.322;2023-01-13T03:11:05;100187.19;;;10.70;53.32
22000;BME280;11164;48.818;2.322;2023-01-13T03:24:55;100192.78;;;10.68;54.02
22000;BME280;11164;48.818;2.322;2023-01-13T03:32:29;100208.94;;;10.48;53.69
22000;BME280;11164;48.818;2.322;2023-01-13T03:35:14;100197.97;;;10.43;53.95
22000;BME280;11164;48.818;2.322;2023-01-13T03:37:46;100192.34;;;10.72;53.95
22000;BME280;11164;48.818;2.322;2023-01-13T03:40:23;100190.69;;;10.84;53.97
22000;BME280;11164;48.818;2.322;2023-01-13T03:42:56;100203.56;;;10.82;53.56
22000;BME280;11164;48.818;2.322;2023-01-13T03:45:46;100203.75;;;10.80;54.08
22000;BME280;11164;48.818;2.322;2023-01-13T03:48:16;100205.00;;;10.58;54.07
22000;BME280;11164;48.818;2.322;2023-01-13T03:50:49;100201.06;;;10.87;52.64
22000;BME280;11164;48.818;2.322;2023-01-13T03:53:31;100208.75;;;10.77;52.79
22000;BME280;11164;48.818;2.322;2023-01-13T03:56:14;100189.25;;;10.48;53.52
22000;BME280;11164;48.818;2.322;2023-01-13T03:58:43;100196.28;;;10.42;53.87
22000;BME280;11164;48.818;2.322;2023-01-13T04:01:16;100184.25;;;10.78;53.39
22000;BME280;11164;48.818;2.322;2023-01-13T04:06:46;100188.84;;;10.71;53.46
22000;BME280;11164;48.818;2.322;2023-01-13T04:09:25;100187.38;;;10.88;53.27
22000;BME280;11164;48.818;2.322;2023-01-13T04:12:05;100195.88;;;10.79;53.00
22000;BME280;11164;48.818;2.322;2023-01-13T04:14:33;100202.50;;;10.56;53.46
22000;BME280;11164;48.818;2.322;2023-01-13T04:16:59;100199.00;;;10.69;53.45
22000;BME280;11164;48.818;2.322;2023-01-13T04:19:25;100208.09;;;10.55;53.31
22000;BME280;11164;48.818;2.322;2023-01-13T04:21:50;100212.69;;;10.81;52.96
22000;BME280;11164;48.818;2.322;2023-01-13T04:24:15;100220.38;;;10.77;53.06
22000;BME280;11164;48.818;2.322;2023-01-13T04:26:41;100220.75;;;10.87;52.82
22000;BME280;11164;48.818;2.322;2023-01-13T04:29:06;100222.88;;;10.65;53.41
22000;BME280;11164;48.818;2.322;2023-01-13T04:31:31;100222.44;;;10.82;52.84
22000;BME280;11164;48.818;2.322;2023-01-13T04:33:57;100227.00;;;10.88;52.50
22000;BME280;11164;48.818;2.322;2023-01-13T04:36:22;100229.06;;;10.39;53.87
22000;BME280;11164;48.818;2.322;2023-01-13T04:38:53;100237.38;;;10.44;53.57
22000;BME280;11164;48.818;2.322;2023-01-13T04:41:19;100232.81;;;10.52;53.39
22000;BME280;11164;48.818;2.322;2023-01-13T04:43:44;100252.53;;;10.59;52.88
22000;BME280;11164;48.818;2.322;2023-01-13T04:46:10;100245.59;;;10.16;53.79
22000;BME280;11164;48.818;2.322;2023-01-13T04:48:35;100242.31;;;10.21;53.48
22000;BME280;11164;48.818;2.322;2023-01-13T04:51:00;100241.50;;;10.27;53.42
22000;BME280;11164;48.818;2.322;2023-01-13T04:53:26;100248.97;;;10.38;53.13
22000;BME280;11164;48.818;2.322;2023-01-13T04:55:51;100248.97;;;10.38;52.90
22000;BME280;11164;48.818;2.322;2023-01-13T04:58:16;100258.50;;;10.54;51.71
22000;BME280;11164;48.818;2.322;2023-01-13T05:00:42;100265.34;;;10.50;52.49
22000;BME280;11164;48.818;2.322;2023-01-13T05:03:07;100265.59;;;10.62;52.08
22000;BME280;11164;48.818;2.322;2023-01-13T05:05:33;100262.44;;;10.38;52.27
22000;BME280;11164;48.818;2.322;2023-01-13T05:07:58;100262.84;;;10.22;52.90
22000;BME280;11164;48.818;2.322;2023-01-13T05:10:25;100257.78;;;9.99;53.46
22000;BME280;11164;48.818;2.322;2023-01-13T05:12:50;100266.91;;;10.04;52.93
22000;BME280;11164;48.818;2.322;2023-01-13T05:15:34;100258.50;;;9.66;54.08
22000;BME280;11164;48.818;2.322;2023-01-13T05:18:18;100270.88;;;10.08;52.95
22000;BME280;11164;48.818;2.322;2023-01-13T05:20:44;100277.09;;;10.09;52.86
22000;BME280;11164;48.818;2.322;2023-01-13T05:23:10;100274.50;;;9.74;53.62
22000;BME280;11164;48.818;2.322;2023-01-13T05:25:54;100274.13;;;9.90;53.15
22000;BME280;11164;48.818;2.322;2023-01-13T05:28:20;100284.03;;;9.77;53.58
22000;BME280;11164;48.818;2.322;2023-01-13T05:30:46;100283.91;;;9.50;54.11
22000;BME280;11164;48.818;2.322;2023-01-13T05:33:15;100301.84;;;9.78;53.33
22000;BME280;11164;48.818;2.322;2023-01-13T05:35:43;100307.94;;;10.00;52.82
22000;BME280;11164;48.818;2.322;2023-01-13T05:38:09;100320.03;;;9.69;53.45
22000;BME280;11164;48.818;2.322;2023-01-13T05:40:37;100319.69;;;9.85;53.21
22000;BME280;11164;48.818;2.322;2023-01-13T05:43:22;100299.53;;;9.74;53.37
22000;BME280;11164;48.818;2.322;2023-01-13T05:46:03;100311.78;;;9.77;52.27
22000;BME280;11164;48.818;2.322;2023-01-13T05:48:32;100313.56;;;10.05;52.17
22000;BME280;11164;48.818;2.322;2023-01-13T05:50:59;100310.06;;;9.69;52.97
22000;BME280;11164;48.818;2.322;2023-01-13T05:53:25;100313.81;;;9.68;52.92
22000;BME280;11164;48.818;2.322;2023-01-13T05:55:51;100324.66;;;9.47;52.72
22000;BME280;11164;48.818;2.322;2023-01-13T05:58:18;100324.63;;;9.75;52.56
22000;BME280;11164;48.818;2.322;2023-01-13T06:00:45;100334.50;;;9.33;52.83
22000;BME280;11164;48.818;2.322;2023-01-13T06:03:11;100325.56;;;9.61;52.99
22000;BME280;11164;48.818;2.322;2023-01-13T06:05:37;100335.22;;;9.48;52.50
22000;BME280;11164;48.818;2.322;2023-01-13T06:08:04;100343.88;;;9.37;53.24
22000;BME280;11164;48.818;2.322;2023-01-13T06:10:30;100339.63;;;9.28;53.27
22000;BME280;11164;48.818;2.322;2023-01-13T06:12:55;100331.47;;;9.43;52.94
22000;BME280;11164;48.818;2.322;2023-01-13T06:15:21;100336.81;;;9.36;53.05
22000;BME280;11164;48.818;2.322;2023-01-13T06:17:47;100351.47;;;9.62;52.34
22000;BME280;11164;48.818;2.322;2023-01-13T06:20:13;100353.63;;;9.45;52.58
22000;BME280;11164;48.818;2.322;2023-01-13T06:22:41;100371.22;;;9.41;52.53
22000;BME280;11164;48.818;2.322;2023-01-13T06:25:11;100370.63;;;9.24;53.04
22000;BME280;11164;48.818;2.322;2023-01-13T06:27:40;100365.28;;;9.52;52.45
22000;BME280;11164;48.818;2.322;2023-01-13T06:30:06;100376.66;;;9.54;52.15
22000;BME280;11164;48.818;2.322;2023-01-13T06:32:36;100382.13;;;9.11;52.67
22000;BME280;11164;48.818;2.322;2023-01-13T06:35:07;100373.28;;;9.45;52.23
22000;BME280;11164;48.818;2.322;2023-01-13T06:37:33;100396.28;;;9.19;52.03
22000;BME280;11164;48.818;2.322;2023-01-13T06:40:02;100388.31;;;9.33;52.29
22000;BME280;11164;48.818;2.322;2023-01-13T06:42:31;100394.03;;;9.23;52.73
22000;BME280;11164;48.818;2.322;2023-01-13T06:45:17;100405.78;;;9.72;51.62
22000;BME280;11164;48.818;2.322;2023-01-13T06:47:43;100400.59;;;9.70;51.43
22000;BME280;11164;48.818;2.322;2023-01-13T06:50:09;100392.44;;;9.57;51.53
22000;BME280;11164;48.818;2.322;2023-01-13T06:52:35;100398.94;;;9.41;52.12
22000;BME280;11164;48.818;2.322;2023-01-13T06:55:00;100399.75;;;9.35;52.06
22000;BME280;11164;48.818;2.322;2023-01-13T06:57:26;100396.44;;;9.40;51.87
22000;BME280;11164;48.818;2.322;2023-01-13T06:59:51;100405.16;;;9.42;51.71
22000;BME280;11164;48.818;2.322;2023-01-13T07:02:17;100414.50;;;9.46;51.57
22000;BME280;11164;48.818;2.322;2023-01-13T07:04:42;100419.00;;;9.17;52.47
22000;BME280;11164;48.818;2.322;2023-01-13T07:07:09;100420.63;;;9.11;52.74
22000;BME280;11164;48.818;2.322;2023-01-13T07:09:34;100426.31;;;9.02;52.69
22000;BME280;11164;48.818;2.322;2023-01-13T07:12:00;100430.66;;;9.24;52.29
22000;BME280;11164;48.818;2.322;2023-01-13T07:14:25;100426.25;;;9.38;51.67
22000;BME280;11164;48.818;2.322;2023-01-13T07:17:09;100426.00;;;9.33;52.00
22000;BME280;11164;48.818;2.322;2023-01-13T07:19:34;100437.56;;;9.12;52.21
22000;BME280;11164;48.818;2.322;2023-01-13T07:22:00;100450.00;;;9.13;52.48
22000;BME280;11164;48.818;2.322;2023-01-13T07:24:25;100452.38;;;9.01;52.14
22000;BME280;11164;48.818;2.322;2023-01-13T07:26:51;100465.63;;;9.03;52.55
22000;BME280;11164;48.818;2.322;2023-01-13T07:29:17;100456.59;;;9.10;52.40
22000;BME280;11164;48.818;2.322;2023-01-13T07:31:42;100449.28;;;9.26;51.96
22000;BME280;11164;48.818;2.322;2023-01-13T07:34:08;100448.72;;;9.30;51.93
22000;BME280;11164;48.818;2.322;2023-01-13T07:36:33;100442.69;;;9.07;52.47
22000;BME280;11164;48.818;2.322;2023-01-13T07:38:59;100458.66;;;8.87;53.35
22000;BME280;11164;48.818;2.322;2023-01-13T07:41:24;100467.75;;;9.07;52.77
22000;BME280;11164;48.818;2.322;2023-01-13T07:44:08;100470.00;;;9.25;52.35
22000;BME280;11164;48.818;2.322;2023-01-13T07:46:35;100462.09;;;9.24;52.12
22000;BME280;11164;48.818;2.322;2023-01-13T07:49:01;100477.44;;;9.23;52.20
22000;BME280;11164;48.818;2.322;2023-01-13T07:51:27;100462.81;;;9.11;52.43
22000;BME280;11164;48.818;2.322;2023-01-13T07:53:52;100471.06;;;9.31;52.11
22000;BME280;11164;48.818;2.322;2023-01-13T07:56:18;100483.31;;;9.12;52.49
22000;BME280;11164;48.818;2.322;2023-01-13T07:58:44;100481.75;;;9.24;52.30
22000;BME280;11164;48.818;2.322;2023-01-13T08:01:14;100494.00;;;9.27;51.99
22000;BME280;11164;48.818;2.322;2023-01-13T08:03:41;100506.31;;;9.14;52.42
22000;BME280;11164;48.818;2.322;2023-01-13T08:06:07;100507.28;;;9.28;52.15
22000;BME280;11164;48.818;2.322;2023-01-13T08:08:33;100503.34;;;9.31;52.41
22000;BME280;11164;48.818;2.322;2023-01-13T08:10:59;100503.69;;;9.43;52.12
22000;BME280;11164;48.818;2.322;2023-01-13T08:13:25;100511.47;;;9.52;51.82
22000;BME280;11164;48.818;2.322;2023-01-13T08:15:52;100505.88;;;9.32;51.97
22000;BME280;11164;48.818;2.322;2023-01-13T08:18:20;100514.50;;;9.28;52.36
22000;BME280;11164;48.818;2.322;2023-01-13T08:20:47;100508.09;;;9.07;52.87
22000;BME280;11164;48.818;2.322;2023-01-13T08:23:13;100512.03;;;9.26;52.48
22000;BME280;11164;48.818;2.322;2023-01-13T08:25:39;100507.47;;;9.27;52.61
22000;BME280;11164;48.818;2.322;2023-01-13T08:28:04;100520.03;;;9.19;52.43
22000;BME280;11164;48.818;2.322;2023-01-13T08:30:30;100531.59;;;9.20;53.04
22000;BME280;11164;48.818;2.322;2023-01-13T08:32:55;100533.88;;;9.02;53.32
22000;BME280;11164;48.818;2.322;2023-01-13T08:35:21;100540.44;;;9.14;53.06
22000;BME280;11164;48.818;2.322;2023-01-13T08:37:47;100553.28;;;9.55;52.18
22000;BME280;11164;48.818;2.322;2023-01-13T08:40:14;100535.13;;;9.21;53.28
22000;BME280;11164;48.818;2.322;2023-01-13T08:42:40;100538.03;;;9.62;52.06
22000;BME280;11164;48.818;2.322;2023-01-13T08:45:07;100527.88;;;9.58;52.04
22000;BME280;11164;48.818;2.322;2023-01-13T08:47:33;100541.75;;;9.40;52.76
22000;BME280;11164;48.818;2.322;2023-01-13T08:49:58;100551.31;;;9.42;52.70
22000;BME280;11164;48.818;2.322;2023-01-13T08:52:23;100552.72;;;9.60;52.23
22000;BME280;11164;48.818;2.322;2023-01-13T08:54:49;100539.88;;;9.40;52.72
22000;BME280;11164;48.818;2.322;2023-01-13T08:57:15;100542.81;;;9.24;53.05
22000;BME280;11164;48.818;2.322;2023-01-13T08:59:41;100542.34;;;9.35;53.29
22000;BME280;11164;48.818;2.322;2023-01-13T09:02:15;100544.91;;;9.65;51.73
22000;BME280;11164;48.818;2.322;2023-01-13T09:04:41;100553.31;;;9.83;51.79
22000;BME280;11164;48.818;2.322;2023-01-13T09:07:07;100557.25;;;9.81;51.77
22000;BME280;11164;48.818;2.322;2023-01-13T09:09:33;100553.31;;;9.33;52.49
22000;BME280;11164;48.818;2.322;2023-01-13T09:11:58;100556.56;;;9.50;52.50
22000;BME280;11164;48.818;2.322;2023-01-13T09:14:42;100563.13;;;9.26;53.29
22000;BME280;11164;48.818;2.322;2023-01-13T09:17:07;100563.56;;;9.66;52.07
22000;BME280;11164;48.818;2.322;2023-01-13T09:19:33;100574.16;;;9.74;52.03
22000;BME280;11164;48.818;2.322;2023-01-13T09:21:58;100577.53;;;9.55;52.53
22000;BME280;11164;48.818;2.322;2023-01-13T09:24:24;100582.63;;;9.93;50.68
22000;BME280;11164;48.818;2.322;2023-01-13T09:26:50;100573.16;;;9.54;52.58
22000;BME280;11164;48.818;2.322;2023-01-13T09:29:15;100587.63;;;9.74;51.79
22000;BME280;11164;48.818;2.322;2023-01-13T09:31:41;100578.22;;;9.85;51.95
22000;BME280;11164;48.818;2.322;2023-01-13T09:34:12;100580.78;;;9.72;50.81
22000;BME280;11164;48.818;2.322;2023-01-13T09:36:56;100574.50;;;9.86;51.65
22000;BME280;11164;48.818;2.322;2023-01-13T09:39:21;100566.91;;;9.97;51.15
22000;BME280;11164;48.818;2.322;2023-01-13T09:41:49;100587.69;;;10.03;50.85
22000;BME280;11164;48.818;2.322;2023-01-13T09:44:54;100603.97;;;10.23;48.37
22000;BME280;11164;48.818;2.322;2023-01-13T09:49:58;100598.78;;;10.21;49.91
22000;BME280;11164;48.818;2.322;2023-01-13T09:52:27;100603.03;;;10.30;51.03
22000;BME280;11164;48.818;2.322;2023-01-13T09:54:59;100591.56;;;10.57;48.68
22000;BME280;11164;48.818;2.322;2023-01-13T09:57:28;100619.59;;;10.06;51.17
22000;BME280;11164;48.818;2.322;2023-01-13T09:59:57;100606.88;;;9.71;51.80
22000;BME280;11164;48.818;2.322;2023-01-13T10:05:13;100605.72;;;10.37;50.29
22000;BME280;11164;48.818;2.322;2023-01-13T10:07:51;100609.19;;;10.24;48.11
22000;BME280;11164;48.818;2.322;2023-01-13T10:10:58;100621.38;;;10.48;47.05
22000;BME280;11164;48.818;2.322;2023-01-13T10:13:27;100610.41;;;10.85;48.88
22000;BME280;11164;48.818;2.322;2023-01-13T10:19:05;100629.81;;;10.10;47.01
22000;BME280;11164;48.818;2.322;2023-01-13T10:29:23;100641.25;;;9.91;48.89
22000;BME280;11164;48.818;2.322;2023-01-13T10:31:51;100630.13;;;10.01;50.60
22000;BME280;11164;48.818;2.322;2023-01-13T10:34:16;100636.25;;;10.16;49.69
22000;BME280;11164;48.818;2.322;2023-01-13T10:37:03;100636.56;;;10.00;48.03
22000;BME280;11164;48.818;2.322;2023-01-13T10:39:43;100636.00;;;10.11;48.48
22000;BME280;11164;48.818;2.322;2023-01-13T10:42:17;100636.00;;;11.02;47.59
22000;BME280;11164;48.818;2.322;2023-01-13T10:45:01;100639.47;;;10.83;45.98
22000;BME280;11164;48.818;2.322;2023-01-13T10:47:35;100639.94;;;10.93;48.05
22000;BME280;11164;48.818;2.322;2023-01-13T10:52:29;100669.59;;;11.35;47.79
22000;BME280;11164;48.818;2.322;2023-01-13T10:54:55;100673.84;;;10.74;49.14
22000;BME280;11164;48.818;2.322;2023-01-13T10:57:23;100671.50;;;10.64;48.47
22000;BME280;11164;48.818;2.322;2023-01-13T10:59:49;100686.91;;;10.71;49.98
22000;BME280;11164;48.818;2.322;2023-01-13T11:02:30;100684.25;;;10.84;47.19
22000;BME280;11164;48.818;2.322;2023-01-13T11:07:33;100708.78;;;10.89;47.85
22000;BME280;11164;48.818;2.322;2023-01-13T11:13:09;100706.00;;;10.76;48.22
22000;BME280;11164;48.818;2.322;2023-01-13T11:15:55;100701.19;;;10.71;47.77
22000;BME280;11164;48.818;2.322;2023-01-13T11:18:37;100705.63;;;11.20;47.20
22000;BME280;11164;48.818;2.322;2023-01-13T11:21:16;100698.78;;;10.83;48.03
22000;BME280;11164;48.818;2.322;2023-01-13T11:23:51;100692.28;;;10.71;48.46
22000;BME280;11164;48.818;2.322;2023-01-13T11:26:25;100707.44;;;11.06;48.16
22000;BME280;11164;48.818;2.322;2023-01-13T11:29:07;100713.03;;;11.05;48.75
22000;BME280;11164;48.818;2.322;2023-01-13T11:31:46;100699.66;;;11.32;46.33
22000;BME280;11164;48.818;2.322;2023-01-13T11:34:38;100706.41;;;11.07;46.39
22000;BME280;11164;48.818;2.322;2023-01-13T11:37:25;100711.91;;;11.34;46.13
22000;BME280;11164;48.818;2.322;2023-01-13T11:42:32;100715.19;;;11.71;47.67
22000;BME280;11164;48.818;2.322;2023-01-13T11:47:29;100716.16;;;11.57;46.61
22000;BME280;11164;48.818;2.322;2023-01-13T11:49:55;100706.88;;;11.66;47.53
22000;BME280;11164;48.818;2.322;2023-01-13T11:58:06;100718.44;;;12.15;46.63
22000;BME280;11164;48.818;2.322;2023-01-13T12:03:22;100729.59;;;11.85;46.38
22000;BME280;11164;48.818;2.322;2023-01-13T12:06:12;100733.44;;;11.62;44.89
22000;BME280;11164;48.818;2.322;2023-01-13T12:11:31;100716.22;;;11.70;44.73
22000;BME280;11164;48.818;2.322;2023-01-13T12:14:25;100699.75;;;11.52;41.54
22000;BME280;11164;48.818;2.322;2023-01-13T12:17:00;100717.75;;;11.93;45.82
22000;BME280;11164;48.818;2.322;2023-01-13T12:19:29;100722.19;;;11.52;46.38
22000;BME280;11164;48.818;2.322;2023-01-13T12:22:11;100708.41;;;11.89;40.61
22000;BME280;11164;48.818;2.322;2023-01-13T12:27:14;100713.44;;;12.12;44.35
22000;BME280;11164;48.818;2.322;2023-01-13T12:29:43;100723.25;;;11.58;45.87
22000;BME280;11164;48.818;2.322;2023-01-13T12:32:17;100726.94;;;12.12;44.73
22000;BME280;11164;48.818;2.322;2023-01-13T12:37:48;100744.97;;;11.43;42.33
22000;BME280;11164;48.818;2.322;2023-01-13T12:40:23;100742.31;;;11.98;43.38
22000;BME280;11164;48.818;2.322;2023-01-13T12:43:14;100739.88;;;12.23;44.44
22000;BME280;11164;48.818;2.322;2023-01-13T12:53:49;100741.69;;;12.16;44.23
22000;BME280;11164;48.818;2.322;2023-01-13T12:56:40;100747.25;;;11.81;40.88
22000;BME280;11164;48.818;2.322;2023-01-13T13:07:15;100749.72;;;10.99;43.19
22000;BME280;11164;48.818;2.322;2023-01-13T13:09:43;100746.28;;;11.60;44.62
22000;BME280;11164;48.818;2.322;2023-01-13T13:12:49;100737.97;;;12.10;40.07
22000;BME280;11164;48.818;2.322;2023-01-13T13:15:36;100728.50;;;11.73;44.18
22000;BME280;11164;48.818;2.322;2023-01-13T13:20:58;100737.19;;;11.61;42.57
22000;BME280;11164;48.818;2.322;2023-01-13T13:23:41;100732.13;;;12.07;41.28
22000;BME280;11164;48.818;2.322;2023-01-13T13:34:08;100758.72;;;11.96;42.88
22000;BME280;11164;48.818;2.322;2023-01-13T13:36:52;100752.75;;;11.59;42.52
22000;BME280;11164;48.818;2.322;2023-01-13T13:39:24;100751.75;;;11.74;43.14
22000;BME280;11164;48.818;2.322;2023-01-13T13:45:02;100761.50;;;12.43;42.96
22000;BME280;11164;48.818;2.322;2023-01-13T13:47:54;100764.81;;;12.45;42.74
22000;BME280;11164;48.818;2.322;2023-01-13T13:50:21;100774.00;;;12.64;42.08
22000;BME280;11164;48.818;2.322;2023-01-13T13:52:56;100775.44;;;12.47;41.99
22000;BME280;11164;48.818;2.322;2023-01-13T13:55:27;100771.63;;;12.01;42.20
22000;BME280;11164;48.818;2.322;2023-01-13T13:57:54;100777.91;;;12.35;42.70
22000;BME280;11164;48.818;2.322;2023-01-13T14:00:28;100779.75;;;12.08;42.94
22000;BME280;11164;48.818;2.322;2023-01-13T14:03:06;100787.66;;;12.16;40.16
22000;BME280;11164;48.818;2.322;2023-01-13T14:05:53;100793.06;;;12.16;41.86
22000;BME280;11164;48.818;2.322;2023-01-13T14:08:20;100790.00;;;12.59;42.45
22000;BME280;11164;48.818;2.322;2023-01-13T14:10:46;100788.78;;;12.88;41.95
22000;BME280;11164;48.818;2.322;2023-01-13T14:13:24;100794.81;;;12.64;41.50
22000;BME280;11164;48.818;2.322;2023-01-13T14:16:04;100805.81;;;12.49;41.59
22000;BME280;11164;48.818;2.322;2023-01-13T14:18:44;100799.94;;;12.18;40.22
22000;BME280;11164;48.818;2.322;2023-01-13T14:21:23;100804.00;;;11.88;42.32
22000;BME280;11164;48.818;2.322;2023-01-13T14:26:27;100836.09;;;11.69;41.21
22000;BME280;11164;48.818;2.322;2023-01-13T14:28:54;100829.97;;;11.47;43.41
22000;BME280;11164;48.818;2.322;2023-01-13T14:31:20;100835.41;;;11.25;43.58
22000;BME280;11164;48.818;2.322;2023-01-13T14:33:49;100845.31;;;11.47;41.57
22000;BME280;11164;48.818;2.322;2023-01-13T14:39:36;100849.69;;;11.82;42.36
22000;BME280;11164;48.818;2.322;2023-01-13T14:44:27;100846.16;;;11.47;40.19
22000;BME280;11164;48.818;2.322;2023-01-13T14:46:58;100847.19;;;11.81;41.34
22000;BME280;11164;48.818;2.322;2023-01-13T14:52:19;100859.19;;;11.37;40.50
22000;BME280;11164;48.818;2.322;2023-01-13T14:54:46;100851.66;;;11.67;42.04
22000;BME280;11164;48.818;2.322;2023-01-13T14:57:25;100870.94;;;11.29;41.96
22000;BME280;11164;48.818;2.322;2023-01-13T15:00:02;100877.75;;;11.53;41.72
22000;BME280;11164;48.818;2.322;2023-01-13T15:04:55;100880.44;;;11.18;43.14
22000;BME280;11164;48.818;2.322;2023-01-13T15:07:25;100868.56;;;10.91;43.36
22000;BME280;11164;48.818;2.322;2023-01-13T15:09:59;100891.19;;;10.68;42.23